sensor_id;sensor_type;location;lat;lon;timestamp;P1;P2;P0
70520;PMS5003;58442;52.716;23.560;2024-03-08T00:00:09;6;6;6
70520;PMS5003;58442;52.716;23.560;2024-03-08T00:00:24;6;6;6
70520;PMS5003;58442;52.716;23.560;2024-03-08T00:00:40;6;6;6
70520;PMS5003;58442;52.716;23.560;2024-03-08T00:00:58;6;6;6
70520;PMS5003;58442;52.716;23.560;2024-03-08T00:01:14;6;6;6
70520;PMS5003;58442;52.716;23.560;2024-03-08T00:01:30;6;6;6
70520;PMS5003;58442;52.716;23.560;2024-03-08T00:01:41;6;6;6
70520;PMS5003;58442;52.716;23.560;2024-03-08T00:01:55;6;6;6
70520;PMS5003;58442;52.716;23.560;2024-03-08T00:02:06;6;6;6
70520;PMS5003;58442;52.716;23.560;2024-03-08T00:02:17;6;6;6
70520;PMS5003;58442;52.716;23.560;2024-03-08T00:02:29;6;6;6
70520;PMS5003;58442;52.716;23.560;2024-03-08T00:02:41;6;6;6
70520;PMS5003;58442;52.716;23.560;2024-03-08T00:02:53;1;1;1
70520;PMS5003;58442;52.716;23.560;2024-03-08T00:03:04;1;1;1
70520;PMS5003;58442;52.716;23.560;2024-03-08T00:03:16;1;1;1
70520;PMS5003;58442;52.716;23.560;2024-03-08T00:03:27;1;1;1
70520;PMS5003;58442;52.716;23.560;2024-03-08T00:03:39;1;1;1
70520;PMS5003;58442;52.716;23.560;2024-03-08T00:03:50;1;1;1
70520;PMS5003;58442;52.716;23.560;2024-03-08T00:04:02;1;1;1
70520;PMS5003;58442;52.716;23.560;2024-03-08T00:04:14;1;1;1
70520;PMS5003;58442;52.716;23.560;2024-03-08T00:04:26;1;1;1
70520;PMS5003;58442;52.716;23.560;2024-03-08T00:04:37;1;1;1
70520;PMS5003;58442;52.716;23.560;2024-03-08T00:04:48;0;0;0
70520;PMS5003;58442;52.716;23.560;2024-03-08T00:04:59;0;0;0
70520;PMS5003;58442;52.716;23.560;2024-03-08T00:05:11;0;0;0
70520;PMS5003;58442;52.716;23.560;2024-03-08T00:05:23;4;4;3
70520;PMS5003;58442;52.716;23.560;2024-03-08T00:05:34;5;5;4
70520;PMS5003;58442;52.716;23.560;2024-03-08T00:05:46;5;5;4
70520;PMS5003;58442;52.716;23.560;2024-03-08T00:05:57;5;5;4
70520;PMS5003;58442;52.716;23.560;2024-03-08T00:06:10;5;5;4
70520;PMS5003;58442;52.716;23.560;2024-03-08T00:06:21;5;5;4
70520;PMS5003;58442;52.716;23.560;2024-03-08T00:06:32;5;5;4
70520;PMS5003;58442;52.716;23.560;2024-03-08T00:06:43;5;5;4
70520;PMS5003;58442;52.716;23.560;2024-03-08T00:06:56;5;5;4
70520;PMS5003;58442;52.716;23.560;2024-03-08T00:07:08;5;5;4
70520;PMS5003;58442;52.716;23.560;2024-03-08T00:07:19;5;5;4
70520;PMS5003;58442;52.716;23.560;2024-03-08T00:07:30;5;5;4
70520;PMS5003;58442;52.716;23.560;2024-03-08T00:07:41;5;5;4
70520;PMS5003;58442;52.716;23.560;2024-03-08T00:07:53;5;5;4
70520;PMS5003;58442;52.716;23.560;2024-03-08T00:08:05;5;5;4
70520;PMS5003;58442;52.716;23.560;2024-03-08T00:08:20;5;5;4
70520;PMS5003;58442;52.716;23.560;2024-03-08T00:08:31;5;5;4
70520;PMS5003;58442;52.716;23.560;2024-03-08T00:08:42;5;5;4
70520;PMS5003;58442;52.716;23.560;2024-03-08T00:08:54;5;5;4
70520;PMS5003;58442;52.716;23.560;2024-03-08T00:09:06;5;5;4
70520;PMS5003;58442;52.716;23.560;2024-03-08T00:09:18;5;5;4
70520;PMS5003;58442;52.716;23.560;2024-03-08T00:09:29;5;5;4
70520;PMS5003;58442;52.716;23.560;2024-03-08T00:09:41;5;5;4
70520;PMS5003;58442;52.716;23.560;2024-03-08T00:09:52;5;5;4
70520;PMS5003;58442;52.716;23.560;2024-03-08T00:10:04;5;5;4
70520;PMS5003;58442;52.716;23.560;2024-03-08T00:10:16;5;5;4
70520;PMS5003;58442;52.716;23.560;2024-03-08T00:10:27;5;5;4
70520;PMS5003;58442;52.716;23.560;2024-03-08T00:10:39;5;5;4
70520;PMS5003;58442;52.716;23.560;2024-03-08T00:10:50;5;5;4
70520;PMS5003;58442;52.716;23.560;2024-03-08T00:11:02;0;0;0
70520;PMS5003;58442;52.716;23.560;2024-03-08T00:11:13;1;1;1
70520;PMS5003;58442;52.716;23.560;2024-03-08T00:11:25;1;1;1
70520;PMS5003;58442;52.716;23.560;2024-03-08T00:11:36;1;1;1
70520;PMS5003;58442;52.716;23.560;2024-03-08T00:11:47;1;1;1
70520;PMS5003;58442;52.716;23.560;2024-03-08T00:12:02;1;1;1
70520;PMS5003;58442;52.716;23.560;2024-03-08T00:12:14;1;1;1
70520;PMS5003;58442;52.716;23.560;2024-03-08T00:12:25;1;1;1
70520;PMS5003;58442;52.716;23.560;2024-03-08T00:12:38;1;1;1
70520;PMS5003;58442;52.716;23.560;2024-03-08T00:12:53;1;1;1
70520;PMS5003;58442;52.716;23.560;2024-03-08T00:13:05;1;1;1
70520;PMS5003;58442;52.716;23.560;2024-03-08T00:13:17;1;1;1
70520;PMS5003;58442;52.716;23.560;2024-03-08T00:13:28;1;1;1
70520;PMS5003;58442;52.716;23.560;2024-03-08T00:13:39;1;1;1
70520;PMS5003;58442;52.716;23.560;2024-03-08T00:13:50;1;1;1
70520;PMS5003;58442;52.716;23.560;2024-03-08T00:14:03;1;1;1
70520;PMS5003;58442;52.716;23.560;2024-03-08T00:14:18;1;1;1
70520;PMS5003;58442;52.716;23.560;2024-03-08T00:14:29;1;1;1
70520;PMS5003;58442;52.716;23.560;2024-03-08T00:14:40;1;1;1
70520;PMS5003;58442;52.716;23.560;2024-03-08T00:14:51;0;0;0
70520;PMS5003;58442;52.716;23.560;2024-03-08T00:15:03;0;0;0
70520;PMS5003;58442;52.716;23.560;2024-03-08T00:15:15;0;0;0
70520;PMS5003;58442;52.716;23.560;2024-03-08T00:15:27;0;0;0
70520;PMS5003;58442;52.716;23.560;2024-03-08T00:15:40;0;0;0
70520;PMS5003;58442;52.716;23.560;2024-03-08T00:15:52;0;0;0
70520;PMS5003;58442;52.716;23.560;2024-03-08T00:16:03;0;0;0
70520;PMS5003;58442;52.716;23.560;2024-03-08T00:16:15;0;0;0
70520;PMS5003;58442;52.716;23.560;2024-03-08T00:16:26;0;0;0
70520;PMS5003;58442;52.716;23.560;2024-03-08T00:16:38;0;0;0
70520;PMS5003;58442;52.716;23.560;2024-03-08T00:16:49;0;0;0
70520;PMS5003;58442;52.716;23.560;2024-03-08T00:17:00;0;0;0
70520;PMS5003;58442;52.716;23.560;2024-03-08T00:17:11;0;0;0
70520;PMS5003;58442;52.716;23.560;2024-03-08T00:17:23;0;0;0
70520;PMS5003;58442;52.716;23.560;2024-03-08T00:17:34;0;0;0
70520;PMS5003;58442;52.716;23.560;2024-03-08T00:17:45;0;0;0
70520;PMS5003;58442;52.716;23.560;2024-03-08T00:17:57;0;0;0
70520;PMS5003;58442;52.716;23.560;2024-03-08T00:18:08;0;0;0
70520;PMS5003;58442;52.716;23.560;2024-03-08T00:18:21;0;0;0
70520;PMS5003;58442;52.716;23.560;2024-03-08T00:18:32;0;0;0
70520;PMS5003;58442;52.716;23.560;2024-03-08T00:18:44;0;0;0
70520;PMS5003;58442;52.716;23.560;2024-03-08T00:18:55;0;0;0
70520;PMS5003;58442;52.716;23.560;2024-03-08T00:19:06;0;0;0
70520;PMS5003;58442;52.716;23.560;2024-03-08T00:19:18;0;0;0
70520;PMS5003;58442;52.716;23.560;2024-03-08T00:19:29;0;0;0
70520;PMS5003;58442;52.716;23.560;2024-03-08T00:19:41;0;0;0
70520;PMS5003;58442;52.716;23.560;2024-03-08T00:19:52;0;0;0
70520;PMS5003;58442;52.716;23.560;2024-03-08T00:20:03;0;0;0
70520;PMS5003;58442;52.716;23.560;2024-03-08T00:20:19;0;0;0
70520;PMS5003;58442;52.716;23.560;2024-03-08T00:20:30;0;0;0
70520;PMS5003;58442;52.716;23.560;2024-03-08T00:20:41;0;0;0
70520;PMS5003;58442;52.716;23.560;2024-03-08T00:20:52;0;0;0
70520;PMS5003;58442;52.716;23.560;2024-03-08T00:21:03;0;0;0
70520;PMS5003;58442;52.716;23.560;2024-03-08T00:21:15;0;0;0
70520;PMS5003;58442;52.716;23.560;2024-03-08T00:21:26;0;0;0
70520;PMS5003;58442;52.716;23.560;2024-03-08T00:21:40;0;0;0
70520;PMS5003;58442;52.716;23.560;2024-03-08T00:21:53;0;0;0
70520;PMS5003;58442;52.716;23.560;2024-03-08T00:22:04;0;0;0
70520;PMS5003;58442;52.716;23.560;2024-03-08T00:22:15;0;0;0
70520;PMS5003;58442;52.716;23.560;2024-03-08T00:22:27;0;0;0
70520;PMS5003;58442;52.716;23.560;2024-03-08T00:22:41;6;6;5
70520;PMS5003;58442;52.716;23.560;2024-03-08T00:22:52;7;7;5
70520;PMS5003;58442;52.716;23.560;2024-03-08T00:23:03;7;7;5
70520;PMS5003;58442;52.716;23.560;2024-03-08T00:23:15;7;7;5
70520;PMS5003;58442;52.716;23.560;2024-03-08T00:23:26;7;7;5
70520;PMS5003;58442;52.716;23.560;2024-03-08T00:23:38;7;7;5
70520;PMS5003;58442;52.716;23.560;2024-03-08T00:23:50;7;7;5
70520;PMS5003;58442;52.716;23.560;2024-03-08T00:24:04;7;7;5
70520;PMS5003;58442;52.716;23.560;2024-03-08T00:24:16;7;7;5
70520;PMS5003;58442;52.716;23.560;2024-03-08T00:24:27;7;7;5
70520;PMS5003;58442;52.716;23.560;2024-03-08T00:24:41;7;7;5
70520;PMS5003;58442;52.716;23.560;2024-03-08T00:24:52;7;7;5
70520;PMS5003;58442;52.716;23.560;2024-03-08T00:25:04;7;7;5
70520;PMS5003;58442;52.716;23.560;2024-03-08T00:25:16;7;7;5
70520;PMS5003;58442;52.716;23.560;2024-03-08T00:25:28;7;7;5
70520;PMS5003;58442;52.716;23.560;2024-03-08T00:25:39;7;7;5
70520;PMS5003;58442;52.716;23.560;2024-03-08T00:25:51;7;7;5
70520;PMS5003;58442;52.716;23.560;2024-03-08T00:26:02;7;7;5
70520;PMS5003;58442;52.716;23.560;2024-03-08T00:26:15;7;7;5
70520;PMS5003;58442;52.716;23.560;2024-03-08T00:26:26;7;7;5
70520;PMS5003;58442;52.716;23.560;2024-03-08T00:26:40;7;7;5
70520;PMS5003;58442;52.716;23.560;2024-03-08T00:26:53;7;7;5
70520;PMS5003;58442;52.716;23.560;2024-03-08T00:27:07;7;7;5
70520;PMS5003;58442;52.716;23.560;2024-03-08T00:27:19;7;7;5
70520;PMS5003;58442;52.716;23.560;2024-03-08T00:27:31;7;7;5
70520;PMS5003;58442;52.716;23.560;2024-03-08T00:27:43;7;7;5
70520;PMS5003;58442;52.716;23.560;2024-03-08T00:27:54;7;7;5
70520;PMS5003;58442;52.716;23.560;2024-03-08T00:28:11;7;7;5
70520;PMS5003;58442;52.716;23.560;2024-03-08T00:28:27;7;7;5
70520;PMS5003;58442;52.716;23.560;2024-03-08T00:28:38;7;7;5
70520;PMS5003;58442;52.716;23.560;2024-03-08T00:28:49;7;7;5
70520;PMS5003;58442;52.716;23.560;2024-03-08T00:29:01;7;7;5
70520;PMS5003;58442;52.716;23.560;2024-03-08T00:29:12;0;0;0
70520;PMS5003;58442;52.716;23.560;2024-03-08T00:29:23;0;0;0
70520;PMS5003;58442;52.716;23.560;2024-03-08T00:29:38;0;0;0
70520;PMS5003;58442;52.716;23.560;2024-03-08T00:29:55;0;0;0
70520;PMS5003;58442;52.716;23.560;2024-03-08T00:30:06;0;0;0
70520;PMS5003;58442;52.716;23.560;2024-03-08T00:30:18;0;0;0
70520;PMS5003;58442;52.716;23.560;2024-03-08T00:30:30;0;0;0
70520;PMS5003;58442;52.716;23.560;2024-03-08T00:30:41;0;0;0
70520;PMS5003;58442;52.716;23.560;2024-03-08T00:30:53;0;0;0
70520;PMS5003;58442;52.716;23.560;2024-03-08T00:31:04;0;0;0
70520;PMS5003;58442;52.716;23.560;2024-03-08T00:31:17;0;0;0
70520;PMS5003;58442;52.716;23.560;2024-03-08T00:31:28;0;0;0
70520;PMS5003;58442;52.716;23.560;2024-03-08T00:31:42;0;0;0
70520;PMS5003;58442;52.716;23.560;2024-03-08T00:31:53;0;0;0
70520;PMS5003;58442;52.716;23.560;2024-03-08T00:32:04;0;0;0
70520;PMS5003;58442;52.716;23.560;2024-03-08T00:32:17;0;0;0
70520;PMS5003;58442;52.716;23.560;2024-03-08T00:32:29;0;0;0
70520;PMS5003;58442;52.716;23.560;2024-03-08T00:32:42;0;0;0
70520;PMS5003;58442;52.716;23.560;2024-03-08T00:32:53;0;0;0
70520;PMS5003;58442;52.716;23.560;2024-03-08T00:33:04;0;0;0
70520;PMS5003;58442;52.716;23.560;2024-03-08T00:33:15;0;0;0
70520;PMS5003;58442;52.716;23.560;2024-03-08T00:33:26;0;0;0
70520;PMS5003;58442;52.716;23.560;2024-03-08T00:33:41;0;0;0
70520;PMS5003;58442;52.716;23.560;2024-03-08T00:33:52;0;0;0
70520;PMS5003;58442;52.716;23.560;2024-03-08T00:34:03;0;0;0
70520;PMS5003;58442;52.716;23.560;2024-03-08T00:34:14;0;0;0
70520;PMS5003;58442;52.716;23.560;2024-03-08T00:34:26;0;0;0
70520;PMS5003;58442;52.716;23.560;2024-03-08T00:34:37;0;0;0
70520;PMS5003;58442;52.716;23.560;2024-03-08T00:34:48;0;0;0
70520;PMS5003;58442;52.716;23.560;2024-03-08T00:35:02;0;0;0
70520;PMS5003;58442;52.716;23.560;2024-03-08T00:35:14;0;0;0
70520;PMS5003;58442;52.716;23.560;2024-03-08T00:35:25;0;0;0
70520;PMS5003;58442;52.716;23.560;2024-03-08T00:35:37;0;0;0
70520;PMS5003;58442;52.716;23.560;2024-03-08T00:35:48;0;0;0
70520;PMS5003;58442;52.716;23.560;2024-03-08T00:35:59;0;0;0
70520;PMS5003;58442;52.716;23.560;2024-03-08T00:36:10;0;0;0
70520;PMS5003;58442;52.716;23.560;2024-03-08T00:36:21;0;0;0
70520;PMS5003;58442;52.716;23.560;2024-03-08T00:36:33;0;0;0
70520;PMS5003;58442;52.716;23.560;2024-03-08T00:36:44;0;0;0
70520;PMS5003;58442;52.716;23.560;2024-03-08T00:36:55;0;0;0
70520;PMS5003;58442;52.716;23.560;2024-03-08T00:37:07;0;0;0
70520;PMS5003;58442;52.716;23.560;2024-03-08T00:37:22;0;0;0
70520;PMS5003;58442;52.716;23.560;2024-03-08T00:37:33;0;0;0
70520;PMS5003;58442;52.716;23.560;2024-03-08T00:37:47;0;0;0
70520;PMS5003;58442;52.716;23.560;2024-03-08T00:37:59;0;0;0
70520;PMS5003;58442;52.716;23.560;2024-03-08T00:38:10;0;0;0
70520;PMS5003;58442;52.716;23.560;2024-03-08T00:38:21;0;0;0
70520;PMS5003;58442;52.716;23.560;2024-03-08T00:38:33;0;0;0
70520;PMS5003;58442;52.716;23.560;2024-03-08T00:38:44;0;0;0
70520;PMS5003;58442;52.716;23.560;2024-03-08T00:38:56;0;0;0
70520;PMS5003;58442;52.716;23.560;2024-03-08T00:39:08;0;0;0
70520;PMS5003;58442;52.716;23.560;2024-03-08T00:39:19;0;0;0
70520;PMS5003;58442;52.716;23.560;2024-03-08T00:39:31;0;0;0
70520;PMS5003;58442;52.716;23.560;2024-03-08T00:39:43;0;0;0
70520;PMS5003;58442;52.716;23.560;2024-03-08T00:39:54;0;0;0
70520;PMS5003;58442;52.716;23.560;2024-03-08T00:40:06;0;0;0
70520;PMS5003;58442;52.716;23.560;2024-03-08T00:40:19;0;0;0
70520;PMS5003;58442;52.716;23.560;2024-03-08T00:40:32;0;0;0
70520;PMS5003;58442;52.716;23.560;2024-03-08T00:40:44;0;0;0
70520;PMS5003;58442;52.716;23.560;2024-03-08T00:40:55;0;0;0
70520;PMS5003;58442;52.716;23.560;2024-03-08T00:41:07;0;0;0
70520;PMS5003;58442;52.716;23.560;2024-03-08T00:41:18;0;0;0
70520;PMS5003;58442;52.716;23.560;2024-03-08T00:41:29;0;0;0
70520;PMS5003;58442;52.716;23.560;2024-03-08T00:41:41;0;0;0
70520;PMS5003;58442;52.716;23.560;2024-03-08T00:41:52;0;0;0
70520;PMS5003;58442;52.716;23.560;2024-03-08T00:42:03;0;0;0
70520;PMS5003;58442;52.716;23.560;2024-03-08T00:42:14;0;0;0
70520;PMS5003;58442;52.716;23.560;2024-03-08T00:42:26;0;0;0
70520;PMS5003;58442;52.716;23.560;2024-03-08T00:42:37;0;0;0
70520;PMS5003;58442;52.716;23.560;2024-03-08T00:42:51;0;0;0
70520;PMS5003;58442;52.716;23.560;2024-03-08T00:43:03;0;0;0
70520;PMS5003;58442;52.716;23.560;2024-03-08T00:43:15;0;0;0
70520;PMS5003;58442;52.716;23.560;2024-03-08T00:43:26;0;0;0
70520;PMS5003;58442;52.716;23.560;2024-03-08T00:43:37;0;0;0
70520;PMS5003;58442;52.716;23.560;2024-03-08T00:43:48;0;0;0
70520;PMS5003;58442;52.716;23.560;2024-03-08T00:43:59;0;0;0
70520;PMS5003;58442;52.716;23.560;2024-03-08T00:44:11;0;0;0
70520;PMS5003;58442;52.716;23.560;2024-03-08T00:44:22;0;0;0
70520;PMS5003;58442;52.716;23.560;2024-03-08T00:44:34;0;0;0
70520;PMS5003;58442;52.716;23.560;2024-03-08T00:44:46;0;0;0
70520;PMS5003;58442;52.716;23.560;2024-03-08T00:45:01;0;0;0
70520;PMS5003;58442;52.716;23.560;2024-03-08T00:45:13;0;0;0
70520;PMS5003;58442;52.716;23.560;2024-03-08T00:45:24;0;0;0
70520;PMS5003;58442;52.716;23.560;2024-03-08T00:45:35;0;0;0
70520;PMS5003;58442;52.716;23.560;2024-03-08T00:45:47;0;0;0
70520;PMS5003;58442;52.716;23.560;2024-03-08T00:45:58;0;0;0
70520;PMS5003;58442;52.716;23.560;2024-03-08T00:46:10;0;0;0
70520;PMS5003;58442;52.716;23.560;2024-03-08T00:46:21;0;0;0
70520;PMS5003;58442;52.716;23.560;2024-03-08T00:46:32;0;0;0
70520;PMS5003;58442;52.716;23.560;2024-03-08T00:46:44;0;0;0
70520;PMS5003;58442;52.716;23.560;2024-03-08T00:46:56;0;0;0
70520;PMS5003;58442;52.716;23.560;2024-03-08T00:47:09;0;0;0
70520;PMS5003;58442;52.716;23.560;2024-03-08T00:47:20;0;0;0
70520;PMS5003;58442;52.716;23.560;2024-03-08T00:47:31;0;0;0
70520;PMS5003;58442;52.716;23.560;2024-03-08T00:47:43;0;0;0
70520;PMS5003;58442;52.716;23.560;2024-03-08T00:47:54;0;0;0
70520;PMS5003;58442;52.716;23.560;2024-03-08T00:48:06;0;0;0
70520;PMS5003;58442;52.716;23.560;2024-03-08T00:48:17;0;0;0
70520;PMS5003;58442;52.716;23.560;2024-03-08T00:48:28;0;0;0
70520;PMS5003;58442;52.716;23.560;2024-03-08T00:48:41;0;0;0
70520;PMS5003;58442;52.716;23.560;2024-03-08T00:48:54;0;0;0
70520;PMS5003;58442;52.716;23.560;2024-03-08T00:49:06;0;0;0
70520;PMS5003;58442;52.716;23.560;2024-03-08T00:49:18;0;0;0
70520;PMS5003;58442;52.716;23.560;2024-03-08T00:49:29;0;0;0
70520;PMS5003;58442;52.716;23.560;2024-03-08T00:49:41;0;0;0
70520;PMS5003;58442;52.716;23.560;2024-03-08T00:49:53;0;0;0
70520;PMS5003;58442;52.716;23.560;2024-03-08T00:50:07;0;0;0
70520;PMS5003;58442;52.716;23.560;2024-03-08T00:50:19;0;0;0
70520;PMS5003;58442;52.716;23.560;2024-03-08T00:50:30;0;0;0
70520;PMS5003;58442;52.716;23.560;2024-03-08T00:50:41;0;0;0
70520;PMS5003;58442;52.716;23.560;2024-03-08T00:50:52;0;0;0
70520;PMS5003;58442;52.716;23.560;2024-03-08T00:51:03;0;0;0
70520;PMS5003;58442;52.716;23.560;2024-03-08T00:51:15;0;0;0
70520;PMS5003;58442;52.716;23.560;2024-03-08T00:51:26;0;0;0
70520;PMS5003;58442;52.716;23.560;2024-03-08T00:51:38;0;0;0
70520;PMS5003;58442;52.716;23.560;2024-03-08T00:51:49;0;0;0
70520;PMS5003;58442;52.716;23.560;2024-03-08T00:52:00;0;0;0
70520;PMS5003;58442;52.716;23.560;2024-03-08T00:52:11;0;0;0
70520;PMS5003;58442;52.716;23.560;2024-03-08T00:52:23;0;0;0
70520;PMS5003;58442;52.716;23.560;2024-03-08T00:52:42;0;0;0
70520;PMS5003;58442;52.716;23.560;2024-03-08T00:52:53;0;0;0
70520;PMS5003;58442;52.716;23.560;2024-03-08T00:53:04;0;0;0
70520;PMS5003;58442;52.716;23.560;2024-03-08T00:53:23;0;0;0
70520;PMS5003;58442;52.716;23.560;2024-03-08T00:53:34;0;0;0
70520;PMS5003;58442;52.716;23.560;2024-03-08T00:53:45;0;0;0
70520;PMS5003;58442;52.716;23.560;2024-03-08T00:53:57;0;0;0
70520;PMS5003;58442;52.716;23.560;2024-03-08T00:54:08;0;0;0
70520;PMS5003;58442;52.716;23.560;2024-03-08T00:54:19;0;0;0
70520;PMS5003;58442;52.716;23.560;2024-03-08T00:54:30;0;0;0
70520;PMS5003;58442;52.716;23.560;2024-03-08T00:54:42;0;0;0
70520;PMS5003;58442;52.716;23.560;2024-03-08T00:54:53;0;0;0
70520;PMS5003;58442;52.716;23.560;2024-03-08T00:55:05;0;0;0
70520;PMS5003;58442;52.716;23.560;2024-03-08T00:55:20;0;0;0
70520;PMS5003;58442;52.716;23.560;2024-03-08T00:55:32;0;0;0
70520;PMS5003;58442;52.716;23.560;2024-03-08T00:55:45;0;0;0
70520;PMS5003;58442;52.716;23.560;2024-03-08T00:55:56;0;0;0
70520;PMS5003;58442;52.716;23.560;2024-03-08T00:56:08;0;0;0
70520;PMS5003;58442;52.716;23.560;2024-03-08T00:56:22;0;0;0
70520;PMS5003;58442;52.716;23.560;2024-03-08T00:56:35;0;0;0
70520;PMS5003;58442;52.716;23.560;2024-03-08T00:56:49;0;0;0
70520;PMS5003;58442;52.716;23.560;2024-03-08T00:57:01;1;1;1
70520;PMS5003;58442;52.716;23.560;2024-03-08T00:57:17;1;1;1
70520;PMS5003;58442;52.716;23.560;2024-03-08T00:57:28;1;1;1
70520;PMS5003;58442;52.716;23.560;2024-03-08T00:57:40;1;1;1
70520;PMS5003;58442;52.716;23.560;2024-03-08T00:57:51;1;1;1
70520;PMS5003;58442;52.716;23.560;2024-03-08T00:58:04;1;1;1
70520;PMS5003;58442;52.716;23.560;2024-03-08T00:58:15;1;1;1
70520;PMS5003;58442;52.716;23.560;2024-03-08T00:58:27;1;1;1
70520;PMS5003;58442;52.716;23.560;2024-03-08T00:58:39;1;1;1
70520;PMS5003;58442;52.716;23.560;2024-03-08T00:58:50;1;1;1
70520;PMS5003;58442;52.716;23.560;2024-03-08T00:59:02;1;1;1
70520;PMS5003;58442;52.716;23.560;2024-03-08T00:59:13;1;1;1
70520;PMS5003;58442;52.716;23.560;2024-03-08T00:59:24;1;1;1
70520;PMS5003;58442;52.716;23.560;2024-03-08T00:59:37;1;1;1
70520;PMS5003;58442;52.716;23.560;2024-03-08T00:59:49;1;1;1
70520;PMS5003;58442;52.716;23.560;2024-03-08T01:00:02;1;1;1
70520;PMS5003;58442;52.716;23.560;2024-03-08T01:00:14;1;1;1
70520;PMS5003;58442;52.716;23.560;2024-03-08T01:00:26;0;0;0
70520;PMS5003;58442;52.716;23.560;2024-03-08T01:00:38;0;0;0
70520;PMS5003;58442;52.716;23.560;2024-03-08T01:00:49;0;0;0
70520;PMS5003;58442;52.716;23.560;2024-03-08T01:01:01;0;0;0
70520;PMS5003;58442;52.716;23.560;2024-03-08T01:01:15;0;0;0
70520;PMS5003;58442;52.716;23.560;2024-03-08T01:01:26;0;0;0
70520;PMS5003;58442;52.716;23.560;2024-03-08T01:01:37;0;0;0
70520;PMS5003;58442;52.716;23.560;2024-03-08T01:01:50;0;0;0
70520;PMS5003;58442;52.716;23.560;2024-03-08T01:02:01;0;0;0
70520;PMS5003;58442;52.716;23.560;2024-03-08T01:02:12;0;0;0
70520;PMS5003;58442;52.716;23.560;2024-03-08T01:02:23;0;0;0
70520;PMS5003;58442;52.716;23.560;2024-03-08T01:02:35;0;0;0
70520;PMS5003;58442;52.716;23.560;2024-03-08T01:02:46;0;0;0
70520;PMS5003;58442;52.716;23.560;2024-03-08T01:02:58;0;0;0
70520;PMS5003;58442;52.716;23.560;2024-03-08T01:03:10;0;0;0
70520;PMS5003;58442;52.716;23.560;2024-03-08T01:03:21;0;0;0
70520;PMS5003;58442;52.716;23.560;2024-03-08T01:03:33;0;0;0
70520;PMS5003;58442;52.716;23.560;2024-03-08T01:03:45;0;0;0
70520;PMS5003;58442;52.716;23.560;2024-03-08T01:03:56;4;4;4
70520;PMS5003;58442;52.716;23.560;2024-03-08T01:04:09;6;6;6
70520;PMS5003;58442;52.716;23.560;2024-03-08T01:04:20;6;6;6
70520;PMS5003;58442;52.716;23.560;2024-03-08T01:04:36;8;8;6
70520;PMS5003;58442;52.716;23.560;2024-03-08T01:04:47;10;10;7
70520;PMS5003;58442;52.716;23.560;2024-03-08T01:04:58;10;10;7
70520;PMS5003;58442;52.716;23.560;2024-03-08T01:05:10;10;10;7
70520;PMS5003;58442;52.716;23.560;2024-03-08T01:05:21;10;10;7
70520;PMS5003;58442;52.716;23.560;2024-03-08T01:05:34;10;10;7
70520;PMS5003;58442;52.716;23.560;2024-03-08T01:05:46;10;10;7
70520;PMS5003;58442;52.716;23.560;2024-03-08T01:05:57;10;10;7
70520;PMS5003;58442;52.716;23.560;2024-03-08T01:06:11;10;10;7
70520;PMS5003;58442;52.716;23.560;2024-03-08T01:06:23;10;10;7
70520;PMS5003;58442;52.716;23.560;2024-03-08T01:06:34;10;10;7
70520;PMS5003;58442;52.716;23.560;2024-03-08T01:06:45;10;10;7
70520;PMS5003;58442;52.716;23.560;2024-03-08T01:06:58;10;10;7
70520;PMS5003;58442;52.716;23.560;2024-03-08T01:07:10;10;10;7
70520;PMS5003;58442;52.716;23.560;2024-03-08T01:07:21;10;10;7
70520;PMS5003;58442;52.716;23.560;2024-03-08T01:07:35;10;10;7
70520;PMS5003;58442;52.716;23.560;2024-03-08T01:07:46;10;10;7
70520;PMS5003;58442;52.716;23.560;2024-03-08T01:07:57;10;10;7
70520;PMS5003;58442;52.716;23.560;2024-03-08T01:08:09;10;10;7
70520;PMS5003;58442;52.716;23.560;2024-03-08T01:08:22;10;10;7
70520;PMS5003;58442;52.716;23.560;2024-03-08T01:08:34;10;10;7
70520;PMS5003;58442;52.716;23.560;2024-03-08T01:08:45;10;10;7
70520;PMS5003;58442;52.716;23.560;2024-03-08T01:08:56;10;10;7
70520;PMS5003;58442;52.716;23.560;2024-03-08T01:09:07;10;10;7
70520;PMS5003;58442;52.716;23.560;2024-03-08T01:09:19;10;10;7
70520;PMS5003;58442;52.716;23.560;2024-03-08T01:09:32;10;10;7
70520;PMS5003;58442;52.716;23.560;2024-03-08T01:09:43;10;10;7
70520;PMS5003;58442;52.716;23.560;2024-03-08T01:09:54;10;10;7
70520;PMS5003;58442;52.716;23.560;2024-03-08T01:10:06;10;10;7
70520;PMS5003;58442;52.716;23.560;2024-03-08T01:10:20;10;10;7
70520;PMS5003;58442;52.716;23.560;2024-03-08T01:10:32;10;10;7
70520;PMS5003;58442;52.716;23.560;2024-03-08T01:10:43;10;10;7
70520;PMS5003;58442;52.716;23.560;2024-03-08T01:10:54;10;10;7
70520;PMS5003;58442;52.716;23.560;2024-03-08T01:11:05;10;10;7
70520;PMS5003;58442;52.716;23.560;2024-03-08T01:11:17;10;10;7
70520;PMS5003;58442;52.716;23.560;2024-03-08T01:11:29;10;10;7
70520;PMS5003;58442;52.716;23.560;2024-03-08T01:11:40;10;10;7
70520;PMS5003;58442;52.716;23.560;2024-03-08T01:11:53;10;10;7
70520;PMS5003;58442;52.716;23.560;2024-03-08T01:12:06;10;10;7
70520;PMS5003;58442;52.716;23.560;2024-03-08T01:12:18;10;10;7
70520;PMS5003;58442;52.716;23.560;2024-03-08T01:12:30;10;10;7
70520;PMS5003;58442;52.716;23.560;2024-03-08T01:12:41;10;10;7
70520;PMS5003;58442;52.716;23.560;2024-03-08T01:12:53;10;10;7
70520;PMS5003;58442;52.716;23.560;2024-03-08T01:13:07;10;10;7
70520;PMS5003;58442;52.716;23.560;2024-03-08T01:13:20;10;10;7
70520;PMS5003;58442;52.716;23.560;2024-03-08T01:13:32;10;10;7
70520;PMS5003;58442;52.716;23.560;2024-03-08T01:13:43;10;10;7
70520;PMS5003;58442;52.716;23.560;2024-03-08T01:13:58;10;10;7
70520;PMS5003;58442;52.716;23.560;2024-03-08T01:14:09;10;10;7
70520;PMS5003;58442;52.716;23.560;2024-03-08T01:14:21;10;10;7
70520;PMS5003;58442;52.716;23.560;2024-03-08T01:14:42;10;10;7
70520;PMS5003;58442;52.716;23.560;2024-03-08T01:14:53;10;10;7
70520;PMS5003;58442;52.716;23.560;2024-03-08T01:15:05;10;10;7
70520;PMS5003;58442;52.716;23.560;2024-03-08T01:15:16;10;10;7
70520;PMS5003;58442;52.716;23.560;2024-03-08T01:15:27;10;10;7
70520;PMS5003;58442;52.716;23.560;2024-03-08T01:15:40;10;10;7
70520;PMS5003;58442;52.716;23.560;2024-03-08T01:15:51;10;10;7
70520;PMS5003;58442;52.716;23.560;2024-03-08T01:16:03;10;10;7
70520;PMS5003;58442;52.716;23.560;2024-03-08T01:16:14;10;10;7
70520;PMS5003;58442;52.716;23.560;2024-03-08T01:16:27;10;10;7
70520;PMS5003;58442;52.716;23.560;2024-03-08T01:16:38;10;10;7
70520;PMS5003;58442;52.716;23.560;2024-03-08T01:16:49;10;10;7
70520;PMS5003;58442;52.716;23.560;2024-03-08T01:17:01;10;10;7
70520;PMS5003;58442;52.716;23.560;2024-03-08T01:17:12;10;10;7
70520;PMS5003;58442;52.716;23.560;2024-03-08T01:17:23;10;10;7
70520;PMS5003;58442;52.716;23.560;2024-03-08T01:17:35;10;10;7
70520;PMS5003;58442;52.716;23.560;2024-03-08T01:17:47;10;10;7
70520;PMS5003;58442;52.716;23.560;2024-03-08T01:17:58;10;10;7
70520;PMS5003;58442;52.716;23.560;2024-03-08T01:18:11;10;10;7
70520;PMS5003;58442;52.716;23.560;2024-03-08T01:18:22;10;10;7
70520;PMS5003;58442;52.716;23.560;2024-03-08T01:18:34;10;10;7
70520;PMS5003;58442;52.716;23.560;2024-03-08T01:18:45;10;10;7
70520;PMS5003;58442;52.716;23.560;2024-03-08T01:18:57;10;10;7